sensor_id;sensor_type;location;lat;lon;timestamp;temperature;humidity
19279;DHT22;9773;47.062;15.446;2023-03-25T00:01:29;12.10;99.90
19279;DHT22;9773;47.062;15.446;2023-03-25T00:04:00;12.10;99.90
19279;DHT22;9773;47.062;15.446;2023-03-25T00:06:29;12.20;99.90
19279;DHT22;9773;47.062;15.446;2023-03-25T00:08:55;12.30;99.90
19279;DHT22;9773;47.062;15.446;2023-03-25T00:11:22;12.30;99.90
19279;DHT22;9773;47.062;15.446;2023-03-25T00:13:48;12.30;99.90
19279;DHT22;9773;47.062;15.446;2023-03-25T00:16:14;12.40;99.90
19279;DHT22;9773;47.062;15.446;2023-03-25T00:18:41;12.40;99.90
19279;DHT22;9773;47.062;15.446;2023-03-25T00:21:07;12.50;99.90
19279;DHT22;9773;47.062;15.446;2023-03-25T00:23:37;12.50;99.90
19279;DHT22;9773;47.062;15.446;2023-03-25T00:26:03;12.40;99.90
19279;DHT22;9773;47.062;15.446;2023-03-25T00:28:32;12.40;99.90
19279;DHT22;9773;47.062;15.446;2023-03-25T00:31:00;12.40;99.90
19279;DHT22;9773;47.062;15.446;2023-03-25T00:33:26;12.40;99.90
19279;DHT22;9773;47.062;15.446;2023-03-25T00:35:53;12.30;99.90
19279;DHT22;9773;47.062;15.446;2023-03-25T00:38:24;12.30;99.90
19279;DHT22;9773;47.062;15.446;2023-03-25T00:40:58;12.30;99.90
19279;DHT22;9773;47.062;15.446;2023-03-25T00:43:24;12.40;99.90
19279;DHT22;9773;47.062;15.446;2023-03-25T00:45:54;12.40;99.90
19279;DHT22;9773;47.062;15.446;2023-03-25T00:48:20;12.40;99.90
19279;DHT22;9773;47.062;15.446;2023-03-25T00:50:46;12.40;99.90
19279;DHT22;9773;47.062;15.446;2023-03-25T00:53:13;12.40;99.90
19279;DHT22;9773;47.062;15.446;2023-03-25T00:55:38;12.40;99.90
19279;DHT22;9773;47.062;15.446;2023-03-25T00:58:05;12.30;99.90
19279;DHT22;9773;47.062;15.446;2023-03-25T01:00:31;12.20;99.90
19279;DHT22;9773;47.062;15.446;2023-03-25T01:02:57;12.20;99.90
19279;DHT22;9773;47.062;15.446;2023-03-25T01:05:23;12.20;99.90
19279;DHT22;9773;47.062;15.446;2023-03-25T01:07:48;12.30;99.90
19279;DHT22;9773;47.062;15.446;2023-03-25T01:10:16;12.20;99.90
19279;DHT22;9773;47.062;15.446;2023-03-25T01:12:42;12.20;99.90
19279;DHT22;9773;47.062;15.446;2023-03-25T01:15:09;12.20;99.90
19279;DHT22;9773;47.062;15.446;2023-03-25T01:17:35;12.20;99.90
19279;DHT22;9773;47.062;15.446;2023-03-25T01:20:01;12.30;99.90
19279;DHT22;9773;47.062;15.446;2023-03-25T01:22:27;12.20;99.90
19279;DHT22;9773;47.062;15.446;2023-03-25T01:24:52;12.20;99.90
19279;DHT22;9773;47.062;15.446;2023-03-25T01:27:18;12.20;99.90
19279;DHT22;9773;47.062;15.446;2023-03-25T01:29:44;12.10;99.90
19279;DHT22;9773;47.062;15.446;2023-03-25T01:32:09;12.10;99.90
19279;DHT22;9773;47.062;15.446;2023-03-25T01:34:35;12.10;99.90
19279;DHT22;9773;47.062;15.446;2023-03-25T01:37:03;12.10;99.90
19279;DHT22;9773;47.062;15.446;2023-03-25T01:39:29;12.00;99.90
19279;DHT22;9773;47.062;15.446;2023-03-25T01:41:55;12.00;99.90
19279;DHT22;9773;47.062;15.446;2023-03-25T01:46:47;12.00;99.90
19279;DHT22;9773;47.062;15.446;2023-03-25T01:49:23;12.00;99.90
19279;DHT22;9773;47.062;15.446;2023-03-25T01:51:58;12.00;99.90
19279;DHT22;9773;47.062;15.446;2023-03-25T01:54:26;11.90;99.90
19279;DHT22;9773;47.062;15.446;2023-03-25T01:56:52;12.00;99.90
19279;DHT22;9773;47.062;15.446;2023-03-25T01:59:24;12.00;99.90
19279;DHT22;9773;47.062;15.446;2023-03-25T02:01:50;11.90;99.90
19279;DHT22;9773;47.062;15.446;2023-03-25T02:04:32;11.90;99.90
19279;DHT22;9773;47.062;15.446;2023-03-25T02:07:03;11.80;99.90
19279;DHT22;9773;47.062;15.446;2023-03-25T02:09:31;11.90;99.90
19279;DHT22;9773;47.062;15.446;2023-03-25T02:11:57;11.80;99.90
19279;DHT22;9773;47.062;15.446;2023-03-25T02:14:27;11.80;99.90
19279;DHT22;9773;47.062;15.446;2023-03-25T02:17:28;11.90;99.90
19279;DHT22;9773;47.062;15.446;2023-03-25T02:25:35;11.80;99.90
19279;DHT22;9773;47.062;15.446;2023-03-25T02:30:42;11.80;99.90
19279;DHT22;9773;47.062;15.446;2023-03-25T02:44:14;11.80;99.90
19279;DHT22;9773;47.062;15.446;2023-03-25T02:46:49;11.70;99.90
19279;DHT22;9773;47.062;15.446;2023-03-25T02:49:24;11.80;99.90
19279;DHT22;9773;47.062;15.446;2023-03-25T02:52:14;11.80;99.90
19279;DHT22;9773;47.062;15.446;2023-03-25T02:54:42;11.80;99.90
19279;DHT22;9773;47.062;15.446;2023-03-25T02:57:12;11.80;99.90
19279;DHT22;9773;47.062;15.446;2023-03-25T02:59:40;11.80;99.90
19279;DHT22;9773;47.062;15.446;2023-03-25T03:02:08;11.80;99.90
19279;DHT22;9773;47.062;15.446;2023-03-25T03:04:52;11.80;99.90
19279;DHT22;9773;47.062;15.446;2023-03-25T03:07:37;11.80;99.90
19279;DHT22;9773;47.062;15.446;2023-03-25T03:10:19;11.80;99.90
19279;DHT22;9773;47.062;15.446;2023-03-25T03:13:29;11.70;99.90
19279;DHT22;9773;47.062;15.446;2023-03-25T03:16:06;11.80;99.90
19279;DHT22;9773;47.062;15.446;2023-03-25T03:19:05;11.70;99.90
19279;DHT22;9773;47.062;15.446;2023-03-25T03:26:56;11.70;99.90
19279;DHT22;9773;47.062;15.446;2023-03-25T03:29:47;11.60;99.90
19279;DHT22;9773;47.062;15.446;2023-03-25T03:32:28;11.60;99.90
19279;DHT22;9773;47.062;15.446;2023-03-25T03:35:12;11.60;99.90
19279;DHT22;9773;47.062;15.446;2023-03-25T03:37:45;11.60;99.90
19279;DHT22;9773;47.062;15.446;2023-03-25T03:40:16;11.50;99.90
19279;DHT22;9773;47.062;15.446;2023-03-25T03:42:50;11.50;99.90
19279;DHT22;9773;47.062;15.446;2023-03-25T03:45:30;11.60;99.90
19279;DHT22;9773;47.062;15.446;2023-03-25T03:47:59;11.60;99.90
19279;DHT22;9773;47.062;15.446;2023-03-25T03:50:34;11.70;99.90
19279;DHT22;9773;47.062;15.446;2023-03-25T03:55:58;11.60;99.90
19279;DHT22;9773;47.062;15.446;2023-03-25T03:58:36;11.70;99.90
19279;DHT22;9773;47.062;15.446;2023-03-25T04:01:06;11.60;99.90
19279;DHT22;9773;47.062;15.446;2023-03-25T04:03:50;11.60;99.90
19279;DHT22;9773;47.062;15.446;2023-03-25T04:06:34;11.70;99.90
19279;DHT22;9773;47.062;15.446;2023-03-25T04:09:22;11.70;99.90
19279;DHT22;9773;47.062;15.446;2023-03-25T04:12:00;11.70;99.90
19279;DHT22;9773;47.062;15.446;2023-03-25T04:14:27;11.70;99.90
19279;DHT22;9773;47.062;15.446;2023-03-25T04:16:54;11.60;99.90
19279;DHT22;9773;47.062;15.446;2023-03-25T04:19:20;11.50;99.90
19279;DHT22;9773;47.062;15.446;2023-03-25T04:21:46;11.50;99.90
19279;DHT22;9773;47.062;15.446;2023-03-25T04:24:15;11.50;99.90
19279;DHT22;9773;47.062;15.446;2023-03-25T04:26:41;11.60;99.90
19279;DHT22;9773;47.062;15.446;2023-03-25T04:29:07;11.60;99.90
19279;DHT22;9773;47.062;15.446;2023-03-25T04:31:34;11.50;99.90
19279;DHT22;9773;47.062;15.446;2023-03-25T04:34:00;11.50;99.90
19279;DHT22;9773;47.062;15.446;2023-03-25T04:36:29;11.60;99.90
19279;DHT22;9773;47.062;15.446;2023-03-25T04:39:02;11.60;99.90
19279;DHT22;9773;47.062;15.446;2023-03-25T04:41:28;11.60;99.90
19279;DHT22;9773;47.062;15.446;2023-03-25T04:43:54;11.60;99.90
19279;DHT22;9773;47.062;15.446;2023-03-25T04:46:20;11.60;99.90
19279;DHT22;9773;47.062;15.446;2023-03-25T04:48:46;11.50;99.90
19279;DHT22;9773;47.062;15.446;2023-03-25T04:51:13;11.50;99.90
19279;DHT22;9773;47.062;15.446;2023-03-25T04:53:39;11.60;99.90
19279;DHT22;9773;47.062;15.446;2023-03-25T04:56:08;11.60;99.90
19279;DHT22;9773;47.062;15.446;2023-03-25T04:58:41;11.60;99.90
19279;DHT22;9773;47.062;15.446;2023-03-25T05:01:09;11.50;99.90
19279;DHT22;9773;47.062;15.446;2023-03-25T05:03:41;11.50;99.90
19279;DHT22;9773;47.062;15.446;2023-03-25T05:06:07;11.50;99.90
19279;DHT22;9773;47.062;15.446;2023-03-25T05:08:33;11.60;99.90
19279;DHT22;9773;47.062;15.446;2023-03-25T05:10:58;11.60;99.90
19279;DHT22;9773;47.062;15.446;2023-03-25T05:13:24;11.50;99.90
19279;DHT22;9773;47.062;15.446;2023-03-25T05:15:50;11.50;99.90
19279;DHT22;9773;47.062;15.446;2023-03-25T05:18:16;11.50;99.90
19279;DHT22;9773;47.062;15.446;2023-03-25T05:20:44;11.50;99.90
19279;DHT22;9773;47.062;15.446;2023-03-25T05:23:12;11.60;99.90
19279;DHT22;9773;47.062;15.446;2023-03-25T05:25:43;11.50;99.90
19279;DHT22;9773;47.062;15.446;2023-03-25T05:28:09;11.50;99.90
19279;DHT22;9773;47.062;15.446;2023-03-25T05:30:44;11.70;99.90
19279;DHT22;9773;47.062;15.446;2023-03-25T05:33:12;11.60;99.90
19279;DHT22;9773;47.062;15.446;2023-03-25T05:35:39;11.60;99.90
19279;DHT22;9773;47.062;15.446;2023-03-25T05:38:06;11.70;99.90
19279;DHT22;9773;47.062;15.446;2023-03-25T05:40:37;11.70;99.90
19279;DHT22;9773;47.062;15.446;2023-03-25T05:43:03;11.60;99.90
19279;DHT22;9773;47.062;15.446;2023-03-25T05:45:31;11.60;99.90
19279;DHT22;9773;47.062;15.446;2023-03-25T05:48:00;11.70;99.90
19279;DHT22;9773;47.062;15.446;2023-03-25T05:50:26;11.70;99.90
19279;DHT22;9773;47.062;15.446;2023-03-25T05:52:53;11.70;99.90
19279;DHT22;9773;47.062;15.446;2023-03-25T05:55:21;11.80;99.90
19279;DHT22;9773;47.062;15.446;2023-03-25T05:57:47;11.70;99.90
19279;DHT22;9773;47.062;15.446;2023-03-25T06:00:14;11.70;99.90
19279;DHT22;9773;47.062;15.446;2023-03-25T06:02:40;11.80;99.90
19279;DHT22;9773;47.062;15.446;2023-03-25T06:05:12;11.90;99.90
19279;DHT22;9773;47.062;15.446;2023-03-25T06:07:39;12.00;99.90
19279;DHT22;9773;47.062;15.446;2023-03-25T06:10:09;12.00;99.90
19279;DHT22;9773;47.062;15.446;2023-03-25T06:12:35;12.00;99.90
19279;DHT22;9773;47.062;15.446;2023-03-25T06:15:07;11.90;99.90
19279;DHT22;9773;47.062;15.446;2023-03-25T06:17:34;11.90;99.90
19279;DHT22;9773;47.062;15.446;2023-03-25T06:20:08;11.80;99.90
19279;DHT22;9773;47.062;15.446;2023-03-25T06:22:41;11.80;99.90
19279;DHT22;9773;47.062;15.446;2023-03-25T06:25:09;11.80;99.90
19279;DHT22;9773;47.062;15.446;2023-03-25T06:27:35;11.70;99.90
19279;DHT22;9773;47.062;15.446;2023-03-25T06:30:09;11.70;99.90
19279;DHT22;9773;47.062;15.446;2023-03-25T06:32:35;11.70;99.90
19279;DHT22;9773;47.062;15.446;2023-03-25T06:35:02;11.80;99.90
19279;DHT22;9773;47.062;15.446;2023-03-25T06:37:28;11.80;99.90
19279;DHT22;9773;47.062;15.446;2023-03-25T06:39:54;11.80;99.90
19279;DHT22;9773;47.062;15.446;2023-03-25T06:42:22;12.00;99.90
19279;DHT22;9773;47.062;15.446;2023-03-25T06:44:48;11.90;99.90
19279;DHT22;9773;47.062;15.446;2023-03-25T06:47:14;12.00;99.90
19279;DHT22;9773;47.062;15.446;2023-03-25T06:49:40;12.10;99.90
19279;DHT22;9773;47.062;15.446;2023-03-25T06:52:06;12.20;99.90
19279;DHT22;9773;47.062;15.446;2023-03-25T06:54:32;12.30;99.90
19279;DHT22;9773;47.062;15.446;2023-03-25T06:56:58;12.40;99.90
19279;DHT22;9773;47.062;15.446;2023-03-25T06:59:24;12.40;99.90
19279;DHT22;9773;47.062;15.446;2023-03-25T07:01:49;12.50;99.90
19279;DHT22;9773;47.062;15.446;2023-03-25T07:04:15;12.50;99.90
19279;DHT22;9773;47.062;15.446;2023-03-25T07:06:41;12.50;99.90
19279;DHT22;9773;47.062;15.446;2023-03-25T07:09:07;12.50;99.90
19279;DHT22;9773;47.062;15.446;2023-03-25T07:11:33;12.60;99.90
19279;DHT22;9773;47.062;15.446;2023-03-25T07:13:59;12.60;99.90
19279;DHT22;9773;47.062;15.446;2023-03-25T07:16:25;12.60;99.90
19279;DHT22;9773;47.062;15.446;2023-03-25T07:18:51;12.60;99.90
19279;DHT22;9773;47.062;15.446;2023-03-25T07:21:18;12.60;99.90
19279;DHT22;9773;47.062;15.446;2023-03-25T07:23:44;12.60;99.90
19279;DHT22;9773;47.062;15.446;2023-03-25T07:26:10;12.60;99.90
19279;DHT22;9773;47.062;15.446;2023-03-25T07:28:35;12.70;99.90
19279;DHT22;9773;47.062;15.446;2023-03-25T07:31:08;12.60;99.90
19279;DHT22;9773;47.062;15.446;2023-03-25T07:33:34;12.70;99.90
19279;DHT22;9773;47.062;15.446;2023-03-25T07:36:01;12.70;99.90
19279;DHT22;9773;47.062;15.446;2023-03-25T07:38:27;12.80;99.90
19279;DHT22;9773;47.062;15.446;2023-03-25T07:40:52;12.80;99.90
19279;DHT22;9773;47.062;15.446;2023-03-25T07:43:18;13.00;99.90
19279;DHT22;9773;47.062;15.446;2023-03-25T07:45:44;13.20;99.90
19279;DHT22;9773;47.062;15.446;2023-03-25T07:48:10;13.40;99.90
19279;DHT22;9773;47.062;15.446;2023-03-25T07:50:39;13.50;99.90
19279;DHT22;9773;47.062;15.446;2023-03-25T07:53:05;13.80;99.90
19279;DHT22;9773;47.062;15.446;2023-03-25T07:55:31;13.90;99.90
19279;DHT22;9773;47.062;15.446;2023-03-25T07:57:57;14.00;99.90
19279;DHT22;9773;47.062;15.446;2023-03-25T08:00:25;14.20;99.90
19279;DHT22;9773;47.062;15.446;2023-03-25T08:02:51;14.30;99.90
19279;DHT22;9773;47.062;15.446;2023-03-25T08:05:17;14.40;99.90
19279;DHT22;9773;47.062;15.446;2023-03-25T08:07:49;14.50;99.90
19279;DHT22;9773;47.062;15.446;2023-03-25T08:10:16;14.60;99.90
19279;DHT22;9773;47.062;15.446;2023-03-25T08:12:42;14.60;99.90
19279;DHT22;9773;47.062;15.446;2023-03-25T08:15:09;14.60;99.90
19279;DHT22;9773;47.062;15.446;2023-03-25T08:17:36;14.70;99.90
19279;DHT22;9773;47.062;15.446;2023-03-25T08:20:03;15.00;99.90
19279;DHT22;9773;47.062;15.446;2023-03-25T08:22:30;15.20;99.90
19279;DHT22;9773;47.062;15.446;2023-03-25T08:24:56;15.20;99.90
19279;DHT22;9773;47.062;15.446;2023-03-25T08:27:22;15.10;99.90
19279;DHT22;9773;47.062;15.446;2023-03-25T08:29:48;15.00;99.90
19279;DHT22;9773;47.062;15.446;2023-03-25T08:32:23;14.80;99.90
19279;DHT22;9773;47.062;15.446;2023-03-25T08:34:49;14.70;99.90
19279;DHT22;9773;47.062;15.446;2023-03-25T08:37:15;14.50;99.90
19279;DHT22;9773;47.062;15.446;2023-03-25T08:39:41;14.40;99.90
19279;DHT22;9773;47.062;15.446;2023-03-25T08:42:11;14.20;99.90
19279;DHT22;9773;47.062;15.446;2023-03-25T08:44:37;14.10;99.90
19279;DHT22;9773;47.062;15.446;2023-03-25T08:47:04;14.00;99.90
19279;DHT22;9773;47.062;15.446;2023-03-25T08:49:30;13.80;99.90
19279;DHT22;9773;47.062;15.446;2023-03-25T08:51:56;13.70;99.90
19279;DHT22;9773;47.062;15.446;2023-03-25T08:54:24;13.60;99.90
19279;DHT22;9773;47.062;15.446;2023-03-25T08:56:50;13.40;99.90
19279;DHT22;9773;47.062;15.446;2023-03-25T08:59:16;13.30;99.90
19279;DHT22;9773;47.062;15.446;2023-03-25T09:01:42;13.20;99.90
19279;DHT22;9773;47.062;15.446;2023-03-25T09:04:09;13.10;99.90
19279;DHT22;9773;47.062;15.446;2023-03-25T09:06:35;13.10;99.90
19279;DHT22;9773;47.062;15.446;2023-03-25T09:09:02;13.10;99.90
19279;DHT22;9773;47.062;15.446;2023-03-25T09:11:30;13.00;99.90
19279;DHT22;9773;47.062;15.446;2023-03-25T09:13:56;13.10;99.90
19279;DHT22;9773;47.062;15.446;2023-03-25T09:16:22;13.10;99.90
19279;DHT22;9773;47.062;15.446;2023-03-25T09:18:48;13.00;99.90
19279;DHT22;9773;47.062;15.446;2023-03-25T09:21:14;13.00;99.90
19279;DHT22;9773;47.062;15.446;2023-03-25T09:23:40;13.00;99.90
19279;DHT22;9773;47.062;15.446;2023-03-25T09:26:05;12.90;99.90
19279;DHT22;9773;47.062;15.446;2023-03-25T09:28:31;12.90;99.90
19279;DHT22;9773;47.062;15.446;2023-03-25T09:30:57;13.00;99.90
19279;DHT22;9773;47.062;15.446;2023-03-25T09:33:23;12.90;99.90
19279;DHT22;9773;47.062;15.446;2023-03-25T09:35:52;12.90;99.90
19279;DHT22;9773;47.062;15.446;2023-03-25T09:38:18;12.80;99.90
19279;DHT22;9773;47.062;15.446;2023-03-25T09:40:44;12.70;99.90
19279;DHT22;9773;47.062;15.446;2023-03-25T09:46:02;12.60;99.90
19279;DHT22;9773;47.062;15.446;2023-03-25T09:48:40;12.60;99.90
19279;DHT22;9773;47.062;15.446;2023-03-25T09:51:13;12.60;99.90
19279;DHT22;9773;47.062;15.446;2023-03-25T09:56:56;12.60;99.90
19279;DHT22;9773;47.062;15.446;2023-03-25T09:59:43;12.50;99.90
19279;DHT22;9773;47.062;15.446;2023-03-25T10:02:50;12.60;99.90
19279;DHT22;9773;47.062;15.446;2023-03-25T10:10:51;12.60;99.90
19279;DHT22;9773;47.062;15.446;2023-03-25T10:19:41;12.50;99.90
19279;DHT22;9773;47.062;15.446;2023-03-25T10:22:18;12.50;99.90
19279;DHT22;9773;47.062;15.446;2023-03-25T10:24:54;12.40;99.90
19279;DHT22;9773;47.062;15.446;2023-03-25T10:27:38;12.40;99.90
19279;DHT22;9773;47.062;15.446;2023-03-25T10:32:44;12.40;99.90
19279;DHT22;9773;47.062;15.446;2023-03-25T10:35:32;12.40;99.90
19279;DHT22;9773;47.062;15.446;2023-03-25T10:38:17;12.40;99.90
19279;DHT22;9773;47.062;15.446;2023-03-25T10:40:49;12.40;99.90
19279;DHT22;9773;47.062;15.446;2023-03-25T10:43:30;12.40;99.90
19279;DHT22;9773;47.062;15.446;2023-03-25T10:48:40;12.60;99.90
19279;DHT22;9773;47.062;15.446;2023-03-25T10:51:10;12.70;99.90
19279;DHT22;9773;47.062;15.446;2023-03-25T10:53:36;12.70;99.90
19279;DHT22;9773;47.062;15.446;2023-03-25T10:56:13;12.70;99.90
19279;DHT22;9773;47.062;15.446;2023-03-25T10:58:42;12.90;99.90
19279;DHT22;9773;47.062;15.446;2023-03-25T11:01:15;13.00;99.90
19279;DHT22;9773;47.062;15.446;2023-03-25T11:03:43;13.30;99.90
19279;DHT22;9773;47.062;15.446;2023-03-25T11:06:30;13.40;99.90
19279;DHT22;9773;47.062;15.446;2023-03-25T11:11:51;13.60;99.90
19279;DHT22;9773;47.062;15.446;2023-03-25T11:14:23;13.70;99.90
19279;DHT22;9773;47.062;15.446;2023-03-25T11:17:00;13.70;99.90
19279;DHT22;9773;47.062;15.446;2023-03-25T11:22:30;13.70;99.90
19279;DHT22;9773;47.062;15.446;2023-03-25T11:25:25;13.70;99.90
19279;DHT22;9773;47.062;15.446;2023-03-25T11:28:22;13.60;99.90
19279;DHT22;9773;47.062;15.446;2023-03-25T11:33:37;13.80;99.90
19279;DHT22;9773;47.062;15.446;2023-03-25T11:36:30;13.80;99.90
19279;DHT22;9773;47.062;15.446;2023-03-25T11:39:14;13.70;99.90
19279;DHT22;9773;47.062;15.446;2023-03-25T11:41:41;13.80;99.90
19279;DHT22;9773;47.062;15.446;2023-03-25T11:44:30;13.70;99.90
19279;DHT22;9773;47.062;15.446;2023-03-25T11:47:05;13.60;99.90
19279;DHT22;9773;47.062;15.446;2023-03-25T11:49:37;13.60;99.90
19279;DHT22;9773;47.062;15.446;2023-03-25T11:52:08;13.60;99.90
19279;DHT22;9773;47.062;15.446;2023-03-25T11:54:37;13.70;99.90
19279;DHT22;9773;47.062;15.446;2023-03-25T11:57:09;13.70;99.90
19279;DHT22;9773;47.062;15.446;2023-03-25T11:59:43;13.70;99.90
19279;DHT22;9773;47.062;15.446;2023-03-25T12:02:35;13.80;99.90
19279;DHT22;9773;47.062;15.446;2023-03-25T12:07:43;14.00;99.90
19279;DHT22;9773;47.062;15.446;2023-03-25T12:10:18;14.00;99.90
19279;DHT22;9773;47.062;15.446;2023-03-25T12:12:50;14.10;99.90
19279;DHT22;9773;47.062;15.446;2023-03-25T12:21:02;14.40;99.80
19279;DHT22;9773;47.062;15.446;2023-03-25T12:23:52;14.50;99.90
19279;DHT22;9773;47.062;15.446;2023-03-25T12:27:15;14.50;99.80
19279;DHT22;9773;47.062;15.446;2023-03-25T12:29:32;14.60;99.60
19279;DHT22;9773;47.062;15.446;2023-03-25T12:52:07;14.50;98.50
19279;DHT22;9773;47.062;15.446;2023-03-25T12:57:43;14.80;99.00
19279;DHT22;9773;47.062;15.446;2023-03-25T13:00:24;15.00;98.10
19279;DHT22;9773;47.062;15.446;2023-03-25T13:05:49;15.20;99.40
19279;DHT22;9773;47.062;15.446;2023-03-25T13:08:52;15.30;98.30
19279;DHT22;9773;47.062;15.446;2023-03-25T13:14:35;15.30;97.60
19279;DHT22;9773;47.062;15.446;2023-03-25T13:17:06;15.10;96.90
19279;DHT22;9773;47.062;15.446;2023-03-25T13:19:34;15.10;97.10
19279;DHT22;9773;47.062;15.446;2023-03-25T13:22:11;15.00;97.60
19279;DHT22;9773;47.062;15.446;2023-03-25T13:24:46;14.80;98.00
19279;DHT22;9773;47.062;15.446;2023-03-25T13:27:15;14.80;98.00
19279;DHT22;9773;47.062;15.446;2023-03-25T13:29:47;14.60;98.40
19279;DHT22;9773;47.062;15.446;2023-03-25T13:32:22;14.50;98.40
19279;DHT22;9773;47.062;15.446;2023-03-25T13:35:28;14.30;98.50
19279;DHT22;9773;47.062;15.446;2023-03-25T13:38:00;14.30;98.50
19279;DHT22;9773;47.062;15.446;2023-03-25T13:40:53;14.20;98.30
19279;DHT22;9773;47.062;15.446;2023-03-25T13:51:14;13.60;97.90
19279;DHT22;9773;47.062;15.446;2023-03-25T13:53:56;13.30;98.50
19279;DHT22;9773;47.062;15.446;2023-03-25T14:01:56;13.10;98.50
19279;DHT22;9773;47.062;15.446;2023-03-25T14:15:01;13.20;98.20
19279;DHT22;9773;47.062;15.446;2023-03-25T14:17:29;13.00;98.30
19279;DHT22;9773;47.062;15.446;2023-03-25T14:19:57;13.10;98.50
19279;DHT22;9773;47.062;15.446;2023-03-25T14:22:30;13.00;98.00
19279;DHT22;9773;47.062;15.446;2023-03-25T14:24:57;13.10;98.10
19279;DHT22;9773;47.062;15.446;2023-03-25T14:27:30;13.20;97.70
19279;DHT22;9773;47.062;15.446;2023-03-25T14:30:04;13.10;97.50
19279;DHT22;9773;47.062;15.446;2023-03-25T14:32:32;13.20;97.70
19279;DHT22;9773;47.062;15.446;2023-03-25T14:46:15;13.30;97.20
19279;DHT22;9773;47.062;15.446;2023-03-25T14:54:15;13.50;96.00
19279;DHT22;9773;47.062;15.446;2023-03-25T14:59:15;13.40;95.80
19279;DHT22;9773;47.062;15.446;2023-03-25T15:01:43;13.40;96.00
19279;DHT22;9773;47.062;15.446;2023-03-25T15:06:48;13.30;95.20
19279;DHT22;9773;47.062;15.446;2023-03-25T15:09:16;13.40;95.00
19279;DHT22;9773;47.062;15.446;2023-03-25T15:11:57;13.50;95.00
19279;DHT22;9773;47.062;15.446;2023-03-25T15:14:40;13.60;94.90
19279;DHT22;9773;47.062;15.446;2023-03-25T15:17:12;13.80;94.20
19279;DHT22;9773;47.062;15.446;2023-03-25T15:22:35;14.00;95.10
19279;DHT22;9773;47.062;15.446;2023-03-25T15:25:04;14.10;95.40
19279;DHT22;9773;47.062;15.446;2023-03-25T15:28:24;14.20;95.20
19279;DHT22;9773;47.062;15.446;2023-03-25T15:34:02;14.40;94.30
19279;DHT22;9773;47.062;15.446;2023-03-25T15:42:59;14.30;93.40
19279;DHT22;9773;47.062;15.446;2023-03-25T15:49:05;14.30;91.60
19279;DHT22;9773;47.062;15.446;2023-03-25T15:57:21;14.30;90.30
19279;DHT22;9773;47.062;15.446;2023-03-25T15:59:54;14.20;90.80
19279;DHT22;9773;47.062;15.446;2023-03-25T16:02:49;14.00;91.20
19279;DHT22;9773;47.062;15.446;2023-03-25T16:05:16;13.90;91.90
19279;DHT22;9773;47.062;15.446;2023-03-25T16:07:43;13.70;92.20
19279;DHT22;9773;47.062;15.446;2023-03-25T16:10:27;13.60;92.30
19279;DHT22;9773;47.062;15.446;2023-03-25T16:12:53;13.40;92.20
19279;DHT22;9773;47.062;15.446;2023-03-25T16:15:28;13.30;92.30
19279;DHT22;9773;47.062;15.446;2023-03-25T16:17:56;13.20;92.50
19279;DHT22;9773;47.062;15.446;2023-03-25T16:20:25;13.20;92.50
19279;DHT22;9773;47.062;15.446;2023-03-25T16:22:54;13.10;92.80
19279;DHT22;9773;47.062;15.446;2023-03-25T16:25:34;13.10;92.70
19279;DHT22;9773;47.062;15.446;2023-03-25T16:28:05;13.10;92.80
19279;DHT22;9773;47.062;15.446;2023-03-25T16:30:35;13.10;92.80
19279;DHT22;9773;47.062;15.446;2023-03-25T16:33:12;13.10;92.70
19279;DHT22;9773;47.062;15.446;2023-03-25T16:35:44;13.10;93.50
19279;DHT22;9773;47.062;15.446;2023-03-25T16:38:14;13.20;93.10
19279;DHT22;9773;47.062;15.446;2023-03-25T16:40:42;13.20;93.20
19279;DHT22;9773;47.062;15.446;2023-03-25T16:43:24;13.10;93.40
19279;DHT22;9773;47.062;15.446;2023-03-25T16:45:54;13.20;93.50
19279;DHT22;9773;47.062;15.446;2023-03-25T16:48:28;13.20;94.40
19279;DHT22;9773;47.062;15.446;2023-03-25T16:50:57;13.20;94.20
19279;DHT22;9773;47.062;15.446;2023-03-25T16:53:24;13.20;94.10
19279;DHT22;9773;47.062;15.446;2023-03-25T16:56:20;13.10;94.20
19279;DHT22;9773;47.062;15.446;2023-03-25T16:58:58;13.20;93.80
19279;DHT22;9773;47.062;15.446;2023-03-25T17:01:26;13.20;93.60
19279;DHT22;9773;47.062;15.446;2023-03-25T17:04:10;13.30;93.60
19279;DHT22;9773;47.062;15.446;2023-03-25T17:06:40;13.20;94.00
19279;DHT22;9773;47.062;15.446;2023-03-25T17:09:15;13.20;94.00
19279;DHT22;9773;47.062;15.446;2023-03-25T17:11:43;13.20;93.70
19279;DHT22;9773;47.062;15.446;2023-03-25T17:14:30;13.20;93.60
19279;DHT22;9773;47.062;15.446;2023-03-25T17:17:12;13.20;94.30
19279;DHT22;9773;47.062;15.446;2023-03-25T17:19:46;13.00;95.80
19279;DHT22;9773;47.062;15.446;2023-03-25T17:22:25;12.60;97.50
19279;DHT22;9773;47.062;15.446;2023-03-25T17:24:57;12.40;97.60
19279;DHT22;9773;47.062;15.446;2023-03-25T17:27:32;12.20;98.40
19279;DHT22;9773;47.062;15.446;2023-03-25T17:30:47;12.00;98.50
19279;DHT22;9773;47.062;15.446;2023-03-25T17:32:48;11.80;99.90
19279;DHT22;9773;47.062;15.446;2023-03-25T17:35:23;11.50;99.90
19279;DHT22;9773;47.062;15.446;2023-03-25T17:37:55;11.20;99.90
19279;DHT22;9773;47.062;15.446;2023-03-25T17:40:23;11.10;99.90
19279;DHT22;9773;47.062;15.446;2023-03-25T17:42:54;10.90;99.90
19279;DHT22;9773;47.062;15.446;2023-03-25T17:45:22;10.70;99.90
19279;DHT22;9773;47.062;15.446;2023-03-25T17:47:48;10.60;99.90
19279;DHT22;9773;47.062;15.446;2023-03-25T17:50:22;10.50;99.90
19279;DHT22;9773;47.062;15.446;2023-03-25T17:52:52;10.60;99.90
19279;DHT22;9773;47.062;15.446;2023-03-25T17:55:18;10.60;99.90
19279;DHT22;9773;47.062;15.446;2023-03-25T17:57:44;10.50;99.90
19279;DHT22;9773;47.062;15.446;2023-03-25T18:00:15;10.70;99.90
19279;DHT22;9773;47.062;15.446;2023-03-25T18:02:46;10.70;99.90
19279;DHT22;9773;47.062;15.446;2023-03-25T18:05:13;10.60;99.90
19279;DHT22;9773;47.062;15.446;2023-03-25T18:07:40;10.60;99.90
19279;DHT22;9773;47.062;15.446;2023-03-25T18:10:17;10.50;99.90
19279;DHT22;9773;47.062;15.446;2023-03-25T18:12:44;10.40;99.90
19279;DHT22;9773;47.062;15.446;2023-03-25T18:15:10;10.30;99.90
19279;DHT22;9773;47.062;15.446;2023-03-25T18:17:37;10.30;99.90
19279;DHT22;9773;47.062;15.446;2023-03-25T18:20:14;10.30;99.90
19279;DHT22;9773;47.062;15.446;2023-03-25T18:22:41;10.20;99.90
19279;DHT22;9773;47.062;15.446;2023-03-25T18:25:07;10.20;99.90
19279;DHT22;9773;47.062;15.446;2023-03-25T18:27:35;10.20;99.90
19279;DHT22;9773;47.062;15.446;2023-03-25T18:30:20;10.10;99.90
19279;DHT22;9773;47.062;15.446;2023-03-25T18:32:47;10.10;99.90
19279;DHT22;9773;47.062;15.446;2023-03-25T18:35:13;10.00;99.90
19279;DHT22;9773;47.062;15.446;2023-03-25T18:37:39;9.90;99.90
19279;DHT22;9773;47.062;15.446;2023-03-25T18:40:18;10.00;99.90
19279;DHT22;9773;47.062;15.446;2023-03-25T18:42:49;10.00;99.90